Time;durP1;ratioP1;P1;durP2;ratioP2;P2;SDS_P1;SDS_P2;PMS_P1;PMS_P2;Temp;Humidity;BMP_temperature;BMP_pressure;BME280_temperature;BME280_humidity;BME280_pressure;Samples;Min_cycle;Max_cycle;Signal;HPM_P1;HPM_P2
2021/03/23 00:00:59;;;;;;;2.17;1.77;;;8.00;99.90;;;;;;5047218;28;20492;-71
2021/03/23 00:03:27;;;;;;;4.23;3.37;;;8.00;99.90;;;;;;5052112;28;20949;-72
2021/03/23 00:05:55;;;;;;;2.50;2.20;;;8.00;99.90;;;;;;5044215;28;20968;-71
2021/03/23 00:08:29;;;;;;;2.07;1.87;;;7.90;99.90;;;;;;5048988;28;21128;-72
2021/03/23 00:10:57;;;;;;;2.37;1.73;;;7.80;99.90;;;;;;5049376;28;21042;-71
2021/03/23 00:13:24;;;;;;;3.50;3.10;;;7.90;99.90;;;;;;5048317;28;20546;-69
2021/03/23 00:15:51;;;;;;;2.63;2.33;;;7.80;99.90;;;;;;5051229;28;20471;-69
2021/03/23 00:18:20;;;;;;;5.10;2.10;;;7.70;99.90;;;;;;5050206;28;20531;-72
2021/03/23 00:20:47;;;;;;;2.27;1.60;;;7.80;99.90;;;;;;5051567;28;20817;-70
2021/03/23 00:23:14;;;;;;;2.53;2.33;;;7.70;99.90;;;;;;5049391;28;20978;-70
2021/03/23 00:25:40;;;;;;;3.20;2.70;;;7.70;99.90;;;;;;5045816;28;20465;-70
2021/03/23 00:28:08;;;;;;;1.97;1.77;;;7.70;99.90;;;;;;5044280;28;20483;-72
2021/03/23 00:30:35;;;;;;;3.13;2.23;;;7.80;99.90;;;;;;5044882;28;20482;-70
2021/03/23 00:33:02;;;;;;;5.63;2.60;;;7.80;99.90;;;;;;5037357;28;20447;-71
2021/03/23 00:35:29;;;;;;;5.67;3.83;;;7.60;99.90;;;;;;5047266;28;20541;-70
2021/03/23 00:37:58;;;;;;;2.87;2.60;;;7.50;99.90;;;;;;5048844;28;21023;-71
2021/03/23 00:40:27;;;;;;;13.10;1.90;;;7.50;99.90;;;;;;5048990;28;20894;-71
2021/03/23 00:42:55;;;;;;;5.43;2.00;;;7.60;99.90;;;;;;5050223;28;20972;-71
2021/03/23 00:45:24;;;;;;;2.37;1.70;;;7.70;99.90;;;;;;5046972;28;20951;-71
2021/03/23 00:47:51;;;;;;;2.40;1.70;;;7.80;99.90;;;;;;5051269;28;20470;-70
2021/03/23 00:50:18;;;;;;;2.33;1.83;;;7.80;99.90;;;;;;5036929;28;20444;-70
2021/03/23 00:52:44;;;;;;;2.10;1.90;;;7.80;99.90;;;;;;5049607;28;20863;-72
2021/03/23 00:55:12;;;;;;;16.50;1.87;;;7.70;99.90;;;;;;5044352;28;20558;-70
2021/03/23 00:57:38;;;;;;;1.50;1.20;;;7.70;99.90;;;;;;5047383;28;21109;-70
2021/03/23 01:00:08;;;;;;;1.10;1.00;;;7.70;99.90;;;;;;5039819;28;25663;-70
2021/03/23 01:02:35;;;;;;;1.57;1.47;;;7.60;99.90;;;;;;5046303;28;20451;-71
2021/03/23 01:05:03;;;;;;;1.50;1.30;;;7.40;99.90;;;;;;5043880;28;20496;-70
2021/03/23 01:07:33;;;;;;;1.73;1.63;;;7.40;99.90;;;;;;5042055;28;21127;-72
2021/03/23 01:10:00;;;;;;;1.77;1.20;;;7.40;99.90;;;;;;5043557;28;20488;-70
2021/03/23 01:12:27;;;;;;;2.00;1.33;;;7.60;99.90;;;;;;5020175;28;20456;-70
2021/03/23 01:14:53;;;;;;;1.53;1.20;;;7.70;99.90;;;;;;5025794;28;20442;-70
2021/03/23 01:17:20;;;;;;;1.20;1.00;;;7.70;99.90;;;;;;5041180;28;20431;-70
2021/03/23 01:19:48;;;;;;;4.20;3.80;;;7.60;99.90;;;;;;5019953;28;20426;-72
2021/03/23 01:22:14;;;;;;;2.13;1.50;;;7.60;99.90;;;;;;5036875;28;20873;-70
2021/03/23 01:24:41;;;;;;;1.40;1.30;;;7.60;99.90;;;;;;5052460;28;20485;-71
2021/03/23 01:27:08;;;;;;;2.30;1.33;;;7.60;99.90;;;;;;5041139;28;20580;-71
2021/03/23 01:29:35;;;;;;;1.57;1.47;;;7.60;99.90;;;;;;5047963;28;20915;-71
2021/03/23 01:32:02;;;;;;;4.03;2.00;;;7.60;99.90;;;;;;5042393;28;20992;-70
2021/03/23 01:34:29;;;;;;;1.53;1.30;;;7.60;99.90;;;;;;5048292;28;20472;-71
2021/03/23 01:36:56;;;;;;;2.13;1.47;;;7.50;99.90;;;;;;5051587;28;20637;-72
2021/03/23 01:39:23;;;;;;;1.50;1.40;;;7.30;99.90;;;;;;5049072;28;20501;-71
2021/03/23 01:41:50;;;;;;;1.60;1.20;;;7.20;99.90;;;;;;5025973;28;20517;-71
2021/03/23 01:44:16;;;;;;;1.50;1.27;;;7.10;99.90;;;;;;5032149;28;20523;-70
2021/03/23 01:46:44;;;;;;;2.13;1.47;;;7.30;99.90;;;;;;5044184;28;20535;-70
2021/03/23 01:49:16;;;;;;;3.80;1.73;;;7.20;99.90;;;;;;5044394;28;20951;-70
2021/03/23 01:51:44;;;;;;;2.80;1.23;;;7.00;99.90;;;;;;5052846;28;20437;-69
2021/03/23 01:54:16;;;;;;;3.20;2.20;;;7.10;99.90;;;;;;5046010;28;20462;-70
2021/03/23 01:56:44;;;;;;;2.00;1.50;;;7.10;99.90;;;;;;5045686;28;20525;-71
2021/03/23 01:59:12;;;;;;;1.70;1.40;;;7.20;99.90;;;;;;5048099;28;20457;-70
2021/03/23 02:01:38;;;;;;;1.67;1.53;;;7.20;99.90;;;;;;5049134;28;20466;-70
2021/03/23 02:04:05;;;;;;;3.37;1.57;;;7.40;99.90;;;;;;5048175;28;20498;-72
2021/03/23 02:06:40;;;;;;;2.17;1.90;;;7.50;99.90;;;;;;5039863;28;20542;-71
2021/03/23 02:09:10;;;;;;;1.77;1.47;;;7.50;99.90;;;;;;5046932;28;20428;-73
2021/03/23 02:11:46;;;;;;;3.03;1.50;;;7.50;99.90;;;;;;5050746;28;20457;-70
2021/03/23 02:14:15;;;;;;;2.23;1.47;;;7.60;99.90;;;;;;5050983;28;20843;-70
2021/03/23 02:16:41;;;;;;;4.07;1.87;;;7.60;99.90;;;;;;5049448;28;20477;-70
2021/03/23 02:19:10;;;;;;;2.77;2.40;;;7.60;99.90;;;;;;5042480;28;20465;-70
2021/03/23 02:21:37;;;;;;;7.70;3.10;;;7.60;99.90;;;;;;5050600;28;20922;-70
2021/03/23 02:24:04;;;;;;;5.77;3.90;;;7.60;99.90;;;;;;5050391;28;20541;-70
2021/03/23 02:26:33;;;;;;;7.70;4.80;;;7.70;99.90;;;;;;5051612;28;20452;-70
2021/03/23 02:29:01;;;;;;;6.80;3.93;;;7.70;99.90;;;;;;5050368;28;20432;-71
2021/03/23 02:31:31;;;;;;;4.97;4.03;;;7.70;99.90;;;;;;5041111;28;20439;-70
2021/03/23 02:33:59;;;;;;;7.53;5.00;;;7.70;99.90;;;;;;5043409;28;20494;-71
2021/03/23 02:36:28;;;;;;;5.83;3.67;;;7.70;99.90;;;;;;5048814;28;20456;-70
2021/03/23 02:38:55;;;;;;;9.17;4.53;;;7.60;99.90;;;;;;5048274;28;20440;-70
2021/03/23 02:41:23;;;;;;;10.33;4.03;;;7.60;99.90;;;;;;5026988;28;20552;-70
2021/03/23 02:43:49;;;;;;;9.40;4.80;;;7.70;99.90;;;;;;5048330;28;20550;-69
2021/03/23 02:46:16;;;;;;;5.77;4.43;;;7.80;99.90;;;;;;5044372;28;20506;-70
2021/03/23 02:48:43;;;;;;;5.27;3.60;;;7.80;99.90;;;;;;5048444;28;20490;-70
2021/03/23 02:51:13;;;;;;;9.07;4.97;;;7.50;99.90;;;;;;5017328;28;20517;-70
2021/03/23 02:53:40;;;;;;;10.53;4.03;;;7.50;99.90;;;;;;5046391;28;20540;-69
2021/03/23 02:56:07;;;;;;;11.47;4.70;;;7.50;99.90;;;;;;5044957;28;21137;-69
2021/03/23 02:58:34;;;;;;;6.80;3.97;;;7.50;99.90;;;;;;5043515;28;20576;-70
2021/03/23 03:01:02;;;;;;;6.70;4.43;;;7.50;99.90;;;;;;5036613;28;20427;-69
2021/03/23 03:03:29;;;;;;;10.50;4.20;;;7.50;99.90;;;;;;5044640;28;20465;-70
2021/03/23 03:05:56;;;;;;;8.13;5.00;;;7.50;99.90;;;;;;5027708;28;20954;-72
2021/03/23 03:08:23;;;;;;;13.37;4.83;;;7.50;99.90;;;;;;5046040;28;20481;-70
2021/03/23 03:10:50;;;;;;;7.43;4.17;;;7.50;99.90;;;;;;5045532;28;21007;-72
2021/03/23 03:13:21;;;;;;;6.93;4.83;;;7.50;99.90;;;;;;5045757;28;20542;-70
2021/03/23 03:15:48;;;;;;;9.67;6.20;;;7.50;99.90;;;;;;5043445;28;20435;-72
2021/03/23 03:18:14;;;;;;;14.83;5.93;;;7.60;99.90;;;;;;5045741;28;20516;-70
2021/03/23 03:20:41;;;;;;;17.33;7.63;;;7.60;99.90;;;;;;5046761;28;20422;-69
2021/03/23 03:23:08;;;;;;;12.27;6.60;;;7.60;99.90;;;;;;5047132;28;20546;-70
2021/03/23 03:25:34;;;;;;;11.63;7.77;;;7.60;99.90;;;;;;5045010;28;20533;-70
2021/03/23 03:28:01;;;;;;;7.33;4.70;;;7.70;99.90;;;;;;5046551;28;20546;-71
2021/03/23 03:30:31;;;;;;;12.07;5.57;;;7.60;99.90;;;;;;5031139;28;21020;-69
2021/03/23 03:32:58;;;;;;;8.40;5.53;;;7.70;99.90;;;;;;5045113;28;20534;-70
2021/03/23 03:35:27;;;;;;;11.80;5.17;;;7.60;99.90;;;;;;5047858;28;20592;-69
2021/03/23 03:37:54;;;;;;;12.10;5.50;;;7.70;99.90;;;;;;5038810;28;20475;-69
2021/03/23 03:40:23;;;;;;;18.90;9.10;;;7.70;99.90;;;;;;5037406;28;20466;-70
2021/03/23 03:42:51;;;;;;;15.77;7.63;;;7.70;99.90;;;;;;5041884;28;20528;-70
2021/03/23 03:45:18;;;;;;;17.10;6.40;;;7.60;99.90;;;;;;5044594;28;20537;-70
2021/03/23 03:47:48;;;;;;;15.70;6.60;;;7.70;99.90;;;;;;5042808;28;20476;-70
2021/03/23 03:50:14;;;;;;;14.50;6.73;;;7.60;99.90;;;;;;5045719;28;20434;-70
2021/03/23 03:52:41;;;;;;;12.43;6.83;;;7.70;99.90;;;;;;5036587;28;20461;-70
2021/03/23 03:55:10;;;;;;;9.37;5.80;;;7.70;99.90;;;;;;5031441;28;20442;-71
2021/03/23 03:57:36;;;;;;;10.77;6.03;;;7.60;99.90;;;;;;5042146;28;20499;-71
2021/03/23 04:00:04;;;;;;;15.33;6.83;;;7.60;99.90;;;;;;5026957;28;20571;-70
2021/03/23 04:02:31;;;;;;;10.20;6.10;;;7.60;99.90;;;;;;5043517;28;20431;-69
2021/03/23 04:04:59;;;;;;;11.20;5.83;;;7.60;99.90;;;;;;5039617;28;20475;-70
2021/03/23 04:07:25;;;;;;;10.40;7.23;;;7.60;99.90;;;;;;5049787;28;20849;-71
2021/03/23 04:09:52;;;;;;;10.40;6.47;;;7.60;99.90;;;;;;5023993;28;20434;-69
2021/03/23 04:12:19;;;;;;;12.17;7.23;;;7.60;99.90;;;;;;5054620;28;20959;-71
2021/03/23 04:14:46;;;;;;;15.70;7.23;;;7.60;99.90;;;;;;5030976;28;20475;-70
2021/03/23 04:17:13;;;;;;;13.50;6.77;;;7.60;99.90;;;;;;5031795;28;20451;-71
2021/03/23 04:19:40;;;;;;;17.90;10.00;;;7.60;99.90;;;;;;5043484;28;20521;-70
2021/03/23 04:22:07;;;;;;;10.87;5.90;;;7.70;99.90;;;;;;5045906;28;20442;-72
2021/03/23 04:24:34;;;;;;;10.67;6.47;;;7.70;99.90;;;;;;5049875;28;20530;-69
2021/03/23 04:27:01;;;;;;;11.50;5.27;;;7.60;99.90;;;;;;5045361;28;20522;-69
2021/03/23 04:29:28;;;;;;;11.13;6.70;;;7.70;99.90;;;;;;5019557;28;20442;-70
2021/03/23 04:31:54;;;;;;;10.10;4.97;;;7.70;99.90;;;;;;5049508;28;20449;-70
2021/03/23 04:34:21;;;;;;;13.07;6.67;;;7.60;99.90;;;;;;5052260;28;21124;-71
2021/03/23 04:36:47;;;;;;;11.80;6.30;;;7.60;99.90;;;;;;5044950;28;20436;-70
2021/03/23 04:39:15;;;;;;;13.97;6.90;;;7.60;99.90;;;;;;5047602;28;20446;-70
2021/03/23 04:41:42;;;;;;;11.53;6.87;;;7.50;99.90;;;;;;5055552;28;20470;-70
2021/03/23 04:44:09;;;;;;;10.23;5.30;;;7.60;99.90;;;;;;5056849;28;20449;-70
2021/03/23 04:46:35;;;;;;;13.93;6.67;;;7.50;99.90;;;;;;5053380;28;20950;-70
2021/03/23 04:49:02;;;;;;;13.53;7.83;;;7.50;99.90;;;;;;5061226;28;20476;-70
2021/03/23 04:51:31;;;;;;;13.07;6.70;;;7.60;99.90;;;;;;5034474;28;20434;-69
2021/03/23 04:54:00;;;;;;;13.40;9.33;;;7.70;99.90;;;;;;5046108;28;20489;-69
2021/03/23 04:56:29;;;;;;;24.70;8.27;;;7.60;99.90;;;;;;5043295;28;20418;-70
2021/03/23 04:58:56;;;;;;;17.90;7.30;;;7.70;99.90;;;;;;5044417;28;20549;-69
2021/03/23 05:01:24;;;;;;;9.27;6.70;;;7.70;99.90;;;;;;5039453;28;21019;-69
2021/03/23 05:03:54;;;;;;;10.63;5.63;;;7.60;99.90;;;;;;5036433;28;20540;-70
2021/03/23 05:06:21;;;;;;;28.23;7.80;;;7.60;99.90;;;;;;5044821;28;20545;-70
2021/03/23 05:08:48;;;;;;;9.87;7.50;;;7.60;99.90;;;;;;5044968;28;20909;-72
2021/03/23 05:11:19;;;;;;;11.00;6.20;;;7.70;99.90;;;;;;5017602;28;20468;-70
2021/03/23 05:13:47;;;;;;;12.90;6.10;;;7.80;99.90;;;;;;5050234;28;21023;-70
2021/03/23 05:16:14;;;;;;;8.90;6.90;;;7.70;99.90;;;;;;5045649;28;20989;-69
2021/03/23 05:18:41;;;;;;;13.93;7.27;;;7.60;99.90;;;;;;5045638;28;20479;-69
2021/03/23 05:21:08;;;;;;;24.03;7.67;;;7.50;99.90;;;;;;5049537;28;20455;-70
2021/03/23 05:23:35;;;;;;;8.40;6.43;;;7.50;99.90;;;;;;5038726;28;20485;-69
2021/03/23 05:26:02;;;;;;;15.53;8.37;;;7.60;99.90;;;;;;5050165;28;20991;-70
2021/03/23 05:28:29;;;;;;;9.07;5.83;;;7.70;99.90;;;;;;5043050;28;20912;-70
2021/03/23 05:30:57;;;;;;;10.83;6.43;;;7.60;99.90;;;;;;5056043;28;20463;-70
2021/03/23 05:33:24;;;;;;;15.73;6.10;;;7.60;99.90;;;;;;5049966;28;20950;-69
2021/03/23 05:35:51;;;;;;;20.10;7.00;;;7.60;99.90;;;;;;5044732;28;20899;-70
2021/03/23 05:38:18;;;;;;;8.10;5.80;;;7.70;99.90;;;;;;5051134;28;20426;-69
2021/03/23 05:40:48;;;;;;;13.90;7.10;;;7.60;99.90;;;;;;5045112;28;20430;-69
2021/03/23 05:43:38;;;;;;;9.50;6.03;;;7.60;99.90;;;;;;5037353;28;20449;-70
2021/03/23 05:46:23;;;;;;;8.80;5.87;;;7.60;99.90;;;;;;5044834;28;20530;-70
2021/03/23 05:48:58;;;;;;;14.13;5.77;;;7.50;99.90;;;;;;5042296;28;20865;-70
2021/03/23 05:51:31;;;;;;;11.83;5.60;;;7.50;99.90;;;;;;5045921;28;20548;-71
2021/03/23 05:54:02;;;;;;;11.60;7.53;;;7.50;99.90;;;;;;5054054;28;20536;-71
2021/03/23 05:56:29;;;;;;;12.10;8.30;;;7.40;99.90;;;;;;5052147;28;20523;-70
2021/03/23 05:59:09;;;;;;;14.00;6.80;;;7.40;99.90;;;;;;5049258;28;20996;-70
2021/03/23 06:01:42;;;;;;;14.03;7.10;;;7.60;99.90;;;;;;5055165;28;20487;-71
2021/03/23 06:04:20;;;;;;;12.50;7.37;;;7.70;99.90;;;;;;5050225;28;20479;-71
2021/03/23 06:06:53;;;;;;;13.50;6.43;;;7.80;99.90;;;;;;5048775;28;20534;-70
2021/03/23 06:09:28;;;;;;;16.50;9.07;;;7.70;99.90;;;;;;5055340;28;20533;-70
2021/03/23 06:12:04;;;;;;;16.00;8.23;;;7.70;99.90;;;;;;5050084;28;20546;-71
2021/03/23 06:14:37;;;;;;;11.67;6.53;;;7.70;99.90;;;;;;5054526;28;20448;-71
2021/03/23 06:17:12;;;;;;;13.70;7.33;;;7.60;99.90;;;;;;5048600;28;20945;-69
2021/03/23 06:19:48;;;;;;;7.50;5.57;;;7.80;99.90;;;;;;5054857;28;20950;-68
2021/03/23 06:22:25;;;;;;;13.77;7.53;;;7.90;99.90;;;;;;5051107;28;20514;-69
2021/03/23 06:24:58;;;;;;;13.93;7.23;;;8.00;99.90;;;;;;5048694;28;21081;-70
2021/03/23 06:27:32;;;;;;;14.63;7.00;;;7.80;99.90;;;;;;5052373;28;20477;-69
2021/03/23 06:30:40;;;;;;;16.80;7.80;;;8.00;99.90;;;;;;5055478;28;20533;-69
2021/03/23 06:33:11;;;;;;;15.07;7.73;;;8.00;99.90;;;;;;5055688;28;20458;-69
2021/03/23 06:35:42;;;;;;;15.90;5.70;;;8.00;99.90;;;;;;5059579;28;20487;-69
2021/03/23 06:38:20;;;;;;;19.90;8.43;;;8.00;99.90;;;;;;5049846;28;20477;-69
2021/03/23 06:41:15;;;;;;;16.43;7.87;;;8.00;99.90;;;;;;5052881;28;20893;-70
2021/03/23 06:43:44;;;;;;;7.70;5.33;;;8.00;99.90;;;;;;5052690;28;20497;-72
2021/03/23 06:46:40;;;;;;;13.77;7.50;;;7.90;99.90;;;;;;5051612;28;20476;-69
2021/03/23 06:49:25;;;;;;;9.50;5.10;;;7.90;99.90;;;;;;5067380;28;20467;-72
2021/03/23 06:52:18;;;;;;;11.63;8.10;;;7.90;99.90;;;;;;5051526;28;20502;-71
2021/03/23 06:55:04;;;;;;;13.30;7.43;;;8.00;99.90;;;;;;5047788;28;20484;-70
2021/03/23 06:57:34;;;;;;;12.40;7.00;;;8.00;99.90;;;;;;5048797;28;20529;-71
2021/03/23 07:00:04;;;;;;;9.60;5.27;;;8.10;99.90;;;;;;5052103;28;20510;-71
2021/03/23 07:02:36;;;;;;;15.03;7.97;;;8.30;99.90;;;;;;5052081;28;20458;-70
2021/03/23 07:05:24;;;;;;;16.17;7.10;;;8.30;99.90;;;;;;5047965;28;20499;-70
2021/03/23 07:07:53;;;;;;;20.60;7.43;;;8.30;99.90;;;;;;5047479;28;20490;-71
2021/03/23 07:10:23;;;;;;;16.10;6.47;;;8.30;99.90;;;;;;5053965;28;20438;-70
2021/03/23 07:12:51;;;;;;;14.93;7.40;;;8.40;99.90;;;;;;5049484;28;20503;-70
2021/03/23 07:15:22;;;;;;;17.70;8.53;;;8.50;99.90;;;;;;5049703;28;20515;-69
2021/03/23 07:17:50;;;;;;;15.03;7.90;;;8.40;99.90;;;;;;5048594;28;20820;-71
2021/03/23 07:20:39;;;;;;;12.80;6.77;;;8.50;99.90;;;;;;5054186;28;20487;-71
2021/03/23 07:23:27;;;;;;;8.23;5.53;;;8.30;99.90;;;;;;5051491;28;20459;-71
2021/03/23 07:25:54;;;;;;;7.97;5.50;;;8.40;99.90;;;;;;5049794;28;20517;-70
2021/03/23 07:28:42;;;;;;;10.80;6.33;;;8.50;99.90;;;;;;5059611;28;20570;-71
2021/03/23 07:31:15;;;;;;;10.63;6.23;;;8.50;99.90;;;;;;5048263;28;20475;-68
2021/03/23 07:34:00;;;;;;;11.47;6.70;;;8.60;99.90;;;;;;5053134;28;21022;-69
2021/03/23 07:36:31;;;;;;;8.43;6.70;;;8.60;99.90;;;;;;5052227;28;20470;-70
2021/03/23 07:39:02;;;;;;;17.67;8.40;;;8.70;99.90;;;;;;5048439;28;20463;-69
2021/03/23 07:41:35;;;;;;;13.80;8.33;;;8.70;99.90;;;;;;5051958;28;20460;-70
2021/03/23 07:44:06;;;;;;;15.60;8.50;;;8.80;99.90;;;;;;5052067;28;20475;-70
2021/03/23 07:46:37;;;;;;;7.13;4.40;;;8.90;99.90;;;;;;5051076;28;20445;-70
2021/03/23 07:49:10;;;;;;;12.70;8.07;;;9.00;99.90;;;;;;5054889;28;21073;-70
2021/03/23 07:51:41;;;;;;;8.93;5.50;;;9.00;99.90;;;;;;5056442;28;20475;-69
2021/03/23 07:54:24;;;;;;;18.50;6.63;;;9.00;99.90;;;;;;5053048;28;20454;-70
2021/03/23 07:56:58;;;;;;;10.70;6.67;;;9.00;99.90;;;;;;5047648;28;20434;-70
2021/03/23 07:59:43;;;;;;;12.43;5.00;;;9.10;99.90;;;;;;5048039;28;20493;-70
2021/03/23 08:02:30;;;;;;;8.80;5.40;;;9.10;99.90;;;;;;5051513;28;20433;-70
2021/03/23 08:05:03;;;;;;;16.50;7.77;;;9.00;99.90;;;;;;5051549;28;20519;-70
2021/03/23 08:07:37;;;;;;;8.70;6.67;;;8.90;99.90;;;;;;5052241;28;21033;-70
2021/03/23 08:10:25;;;;;;;6.60;3.97;;;8.90;99.90;;;;;;5053895;28;21045;-70
2021/03/23 08:13:26;;;;;;;12.87;6.90;;;8.80;99.90;;;;;;5051115;28;20445;-71
2021/03/23 08:16:22;;;;;;;16.13;5.70;;;8.90;99.90;;;;;;5049466;28;20877;-70
2021/03/23 08:19:33;;;;;;;8.57;4.20;;;8.90;99.90;;;;;;5058046;28;20500;-71
2021/03/23 08:22:37;;;;;;;21.53;9.70;;;9.00;99.90;;;;;;5060014;28;20470;-71
2021/03/23 08:25:12;;;;;;;13.20;8.23;;;9.10;99.90;;;;;;5051779;28;20474;-71
2021/03/23 08:27:55;;;;;;;7.13;5.00;;;9.20;99.90;;;;;;5057956;28;20449;-70
2021/03/23 08:30:33;;;;;;;36.97;6.90;;;9.20;99.90;;;;;;5052356;28;20487;-70
2021/03/23 08:33:08;;;;;;;8.77;4.17;;;9.20;99.90;;;;;;5052599;28;20451;-71
2021/03/23 08:35:59;;;;;;;13.20;9.10;;;9.30;99.90;;;;;;5055106;28;20994;-71
2021/03/23 08:38:44;;;;;;;25.93;9.00;;;9.20;99.90;;;;;;5055461;28;20462;-69
2021/03/23 08:41:20;;;;;;;16.90;7.67;;;9.40;99.90;;;;;;5060955;28;20474;-70
2021/03/23 08:43:47;;;;;;;10.80;8.50;;;9.50;99.90;;;;;;5059954;28;20547;-71
2021/03/23 08:46:19;;;;;;;11.80;7.30;;;9.80;99.90;;;;;;5054487;28;20569;-70
2021/03/23 08:48:50;;;;;;;18.23;8.03;;;10.90;99.90;;;;;;5053783;28;20497;-70
2021/03/23 08:51:21;;;;;;;22.00;9.90;;;11.80;99.90;;;;;;5056716;28;20855;-71
2021/03/23 08:53:57;;;;;;;25.17;10.23;;;12.30;99.90;;;;;;5050734;28;20483;-70
2021/03/23 08:57:02;;;;;;;10.23;6.43;;;12.80;99.90;;;;;;5060457;28;20451;-69
2021/03/23 08:59:45;;;;;;;8.80;7.00;;;13.60;99.90;;;;;;5055274;28;20854;-71
2021/03/23 09:02:45;;;;;;;18.60;10.03;;;14.10;99.90;;;;;;5051517;28;20583;-68
2021/03/23 09:05:33;;;;;;;16.97;7.93;;;15.00;99.90;;;;;;5057578;28;21040;-67
2021/03/23 09:08:28;;;;;;;18.70;10.17;;;14.70;99.90;;;;;;5054948;28;20483;-67
2021/03/23 09:10:59;;;;;;;19.83;9.30;;;14.50;99.90;;;;;;5049709;28;20447;-68
2021/03/23 09:14:21;;;;;;;17.30;9.60;;;14.40;99.90;;;;;;5056225;28;20447;-68
2021/03/23 09:17:36;;;;;;;26.70;10.87;;;14.50;99.90;;;;;;5052526;28;20457;-69
2021/03/23 09:20:46;;;;;;;13.93;8.70;;;15.50;99.90;;;;;;5050720;28;20468;-69
2021/03/23 09:23:51;;;;;;;13.23;7.50;;;16.00;99.90;;;;;;5039550;28;20516;-68
2021/03/23 09:26:48;;;;;;;14.70;7.70;;;16.60;99.90;;;;;;5052756;28;20516;-68
2021/03/23 09:29:46;;;;;;;16.70;9.63;;;16.30;99.90;;;;;;5015630;28;20486;-68
2021/03/23 09:32:17;;;;;;;16.10;9.53;;;15.50;99.90;;;;;;5023278;28;20988;-68
2021/03/23 09:35:22;;;;;;;27.07;14.37;;;14.90;99.90;;;;;;5054451;28;20510;-68
2021/03/23 09:37:53;;;;;;;22.87;11.33;;;14.80;99.90;;;;;;5054532;28;20519;-68
2021/03/23 09:41:00;;;;;;;15.07;9.23;;;14.90;99.90;;;;;;5055036;28;20454;-67
2021/03/23 09:43:35;;;;;;;18.10;9.97;;;14.60;99.90;;;;;;5055348;28;20459;-67
2021/03/23 09:46:22;;;;;;;21.70;10.13;;;14.60;99.90;;;;;;5060743;28;20476;-68
2021/03/23 09:48:57;;;;;;;24.57;11.30;;;14.30;99.90;;;;;;5037395;28;20494;-67
2021/03/23 09:51:44;;;;;;;18.80;9.90;;;14.70;99.90;;;;;;5051614;28;20802;-68
2021/03/23 09:54:20;;;;;;;12.80;8.23;;;14.70;99.90;;;;;;5052372;28;20477;-67
2021/03/23 09:56:49;;;;;;;18.80;10.67;;;14.70;99.90;;;;;;5048081;28;20507;-67
2021/03/23 09:59:24;;;;;;;20.00;11.77;;;14.90;99.90;;;;;;5051626;28;20516;-67
2021/03/23 10:02:01;;;;;;;21.33;12.70;;;15.60;99.90;;;;;;5052358;28;20462;-68
2021/03/23 10:04:40;;;;;;;16.50;8.60;;;15.60;99.90;;;;;;5055747;28;21266;-68
2021/03/23 10:07:08;;;;;;;16.03;9.10;;;16.10;99.90;;;;;;5057432;28;20459;-67
2021/03/23 10:09:36;;;;;;;25.03;12.20;;;16.30;99.90;;;;;;5057972;28;20857;-67
2021/03/23 10:12:04;;;;;;;13.87;9.10;;;16.80;99.90;;;;;;5058993;28;20466;-67
2021/03/23 10:14:36;;;;;;;23.40;10.17;;;17.10;99.90;;;;;;5057295;28;20479;-68
2021/03/23 10:17:13;;;;;;;22.33;11.27;;;16.80;99.90;;;;;;5056755;28;20669;-68
2021/03/23 10:19:43;;;;;;;19.57;12.30;;;17.10;99.90;;;;;;5055995;28;20462;-67
2021/03/23 10:22:16;;;;;;;18.80;8.33;;;18.10;99.90;;;;;;5051533;28;20516;-68
2021/03/23 10:24:46;;;;;;;19.13;6.97;;;19.00;98.00;;;;;;5052120;28;20487;-68
2021/03/23 10:27:21;;;;;;;12.67;8.47;;;18.50;96.90;;;;;;5053652;28;20459;-68
2021/03/23 10:30:09;;;;;;;22.30;11.50;;;17.90;98.10;;;;;;5052468;28;20455;-68
2021/03/23 10:32:41;;;;;;;16.70;7.80;;;17.80;97.50;;;;;;5054842;28;20485;-68
2021/03/23 10:35:13;;;;;;;20.33;7.80;;;17.50;97.80;;;;;;5053090;28;20493;-67
2021/03/23 10:37:40;;;;;;;20.63;10.27;;;17.60;97.80;;;;;;5051037;28;20570;-67
2021/03/23 10:40:26;;;;;;;14.17;7.40;;;17.90;97.40;;;;;;5033913;28;20489;-68
2021/03/23 10:42:54;;;;;;;19.80;10.67;;;17.70;97.30;;;;;;5051936;28;20475;-68
2021/03/23 10:45:29;;;;;;;8.63;6.40;;;18.10;97.90;;;;;;5031450;28;20491;-68
2021/03/23 10:48:05;;;;;;;20.27;10.80;;;17.60;96.60;;;;;;5049051;28;20492;-68
2021/03/23 10:50:34;;;;;;;21.60;9.83;;;17.50;98.10;;;;;;5055868;28;20925;-69
2021/03/23 10:53:12;;;;;;;24.40;9.70;;;17.80;96.60;;;;;;5057651;28;20466;-68
2021/03/23 10:55:42;;;;;;;18.70;8.77;;;17.30;96.40;;;;;;5054033;28;20474;-68
2021/03/23 10:58:26;;;;;;;15.50;6.70;;;16.80;96.80;;;;;;5052425;28;21248;-68
2021/03/23 11:01:13;;;;;;;17.03;8.20;;;16.40;98.70;;;;;;5051333;28;21069;-68
2021/03/23 11:03:42;;;;;;;19.63;12.00;;;16.60;98.70;;;;;;5052235;28;20460;-68
2021/03/23 11:06:27;;;;;;;23.80;11.13;;;16.70;99.00;;;;;;5054826;28;20460;-68
2021/03/23 11:08:54;;;;;;;17.30;8.00;;;16.80;98.70;;;;;;5048963;28;20541;-68
2021/03/23 11:11:21;;;;;;;14.73;8.37;;;16.70;98.00;;;;;;5038175;28;20451;-67
2021/03/23 11:13:48;;;;;;;18.90;11.80;;;16.40;99.80;;;;;;5056729;28;20842;-67
2021/03/23 11:16:19;;;;;;;12.50;6.87;;;16.30;99.70;;;;;;5050322;28;20454;-67
2021/03/23 11:18:48;;;;;;;18.50;7.00;;;16.00;99.30;;;;;;5054928;28;20828;-67
2021/03/23 11:21:17;;;;;;;18.40;9.40;;;16.00;99.20;;;;;;5054444;28;20460;-67
2021/03/23 11:23:48;;;;;;;20.57;6.70;;;15.90;99.90;;;;;;5052341;28;20479;-68
2021/03/23 11:26:20;;;;;;;14.57;7.97;;;16.30;99.60;;;;;;5053773;28;20855;-68
2021/03/23 11:28:53;;;;;;;8.50;5.10;;;16.70;99.10;;;;;;5048469;28;20490;-67
2021/03/23 11:31:23;;;;;;;18.83;10.33;;;16.80;98.30;;;;;;5051792;28;20446;-67
2021/03/23 11:33:51;;;;;;;12.37;8.43;;;16.80;98.70;;;;;;5056290;28;20565;-69
2021/03/23 11:36:19;;;;;;;14.17;8.77;;;16.60;97.90;;;;;;5050213;28;20463;-68
2021/03/23 11:38:46;;;;;;;13.13;8.93;;;16.50;98.40;;;;;;5052084;28;20521;-68
2021/03/23 11:41:17;;;;;;;19.17;9.73;;;16.30;99.30;;;;;;5057879;28;20863;-67
2021/03/23 11:43:46;;;;;;;18.20;10.23;;;15.90;99.50;;;;;;5062054;28;20958;-67
2021/03/23 11:46:21;;;;;;;14.97;10.00;;;15.60;99.90;;;;;;5054692;28;20844;-67
2021/03/23 11:48:53;;;;;;;15.23;10.50;;;16.10;99.90;;;;;;5058134;28;20469;-67
2021/03/23 11:51:22;;;;;;;17.10;9.53;;;16.30;99.90;;;;;;5053212;28;20536;-67
2021/03/23 11:53:49;;;;;;;16.37;9.87;;;15.90;99.90;;;;;;5059898;28;20513;-67
2021/03/23 11:56:16;;;;;;;15.70;10.37;;;15.70;99.90;;;;;;5054390;28;20810;-67
2021/03/23 11:58:44;;;;;;;16.30;10.60;;;15.50;99.90;;;;;;5052270;28;20466;-67
2021/03/23 12:01:11;;;;;;;17.27;11.27;;;15.20;99.90;;;;;;5054387;28;20488;-67
2021/03/23 12:03:38;;;;;;;24.90;10.90;;;15.30;99.90;;;;;;5052925;28;20875;-68
2021/03/23 12:06:07;;;;;;;14.17;9.90;;;15.40;99.90;;;;;;5059018;28;20459;-68
2021/03/23 12:08:40;;;;;;;16.43;10.27;;;15.20;99.90;;;;;;5056403;28;20561;-68
2021/03/23 12:11:21;;;;;;;12.20;7.13;;;15.10;99.90;;;;;;5051973;28;20473;-67
2021/03/23 12:13:59;;;;;;;30.43;13.93;;;15.20;99.90;;;;;;5060635;28;20511;-68
2021/03/23 12:16:33;;;;;;;21.20;12.13;;;14.90;99.90;;;;;;5059942;28;20513;-67
2021/03/23 12:19:03;;;;;;;11.70;6.47;;;15.20;99.90;;;;;;5057088;28;20451;-68
2021/03/23 12:21:31;;;;;;;13.97;9.70;;;15.50;99.90;;;;;;5055165;28;20455;-67
2021/03/23 12:23:58;;;;;;;18.20;12.60;;;16.10;99.90;;;;;;5053637;28;21072;-67
2021/03/23 12:26:25;;;;;;;18.07;9.50;;;16.40;99.90;;;;;;5054903;28;20466;-68
2021/03/23 12:28:52;;;;;;;7.33;5.50;;;16.60;99.90;;;;;;5058352;28;20478;-68
2021/03/23 12:31:19;;;;;;;14.90;10.47;;;16.70;99.90;;;;;;5044489;28;20842;-67
2021/03/23 12:33:46;;;;;;;14.60;9.93;;;16.20;99.90;;;;;;5053628;28;21188;-67
2021/03/23 12:36:14;;;;;;;16.27;10.23;;;16.20;99.90;;;;;;5034424;28;20552;-67
2021/03/23 12:38:46;;;;;;;10.53;7.47;;;16.10;99.90;;;;;;5050263;28;20952;-68
2021/03/23 12:41:15;;;;;;;16.30;10.90;;;16.20;99.90;;;;;;5055933;28;21046;-68
2021/03/23 12:43:42;;;;;;;16.50;11.33;;;16.30;99.90;;;;;;5052893;28;20467;-68
2021/03/23 12:46:09;;;;;;;18.13;9.93;;;16.70;99.90;;;;;;5043323;28;20558;-67
2021/03/23 12:48:37;;;;;;;23.97;12.50;;;16.60;99.90;;;;;;5051438;28;20487;-67
2021/03/23 12:51:04;;;;;;;12.77;9.97;;;16.10;99.90;;;;;;5038357;28;20469;-66
2021/03/23 12:53:33;;;;;;;15.37;8.40;;;15.90;99.90;;;;;;5055664;28;20494;-67
2021/03/23 12:56:00;;;;;;;11.40;8.17;;;15.50;99.90;;;;;;5036701;28;20517;-67
2021/03/23 12:58:30;;;;;;;17.90;10.50;;;15.30;99.90;;;;;;5035892;28;20451;-68
2021/03/23 13:00:57;;;;;;;16.53;10.60;;;15.40;99.90;;;;;;5053167;28;20459;-68
2021/03/23 13:03:24;;;;;;;22.20;12.50;;;15.60;99.90;;;;;;5040113;28;20460;-68
2021/03/23 13:05:52;;;;;;;13.73;10.07;;;15.70;99.90;;;;;;5052447;28;20894;-68
2021/03/23 13:08:24;;;;;;;14.30;9.37;;;15.60;99.90;;;;;;5054450;28;20950;-68
2021/03/23 13:10:53;;;;;;;13.37;10.93;;;15.60;99.90;;;;;;5051818;28;20494;-68
2021/03/23 13:13:25;;;;;;;12.90;9.40;;;15.70;99.90;;;;;;5054292;28;20516;-68